createdAt,value
2019-04-27T00:01:57.681Z,41.00
2019-04-27T00:04:27.529Z,41.73
2019-04-27T00:07:00.084Z,40.92
2019-04-27T00:09:50.020Z,40.70
2019-04-27T00:12:16.539Z,42.23
2019-04-27T00:14:48.406Z,41.18
2019-04-27T00:17:41.236Z,41.90
2019-04-27T00:20:09.665Z,42.67
2019-04-27T00:22:40.278Z,42.08
2019-04-27T00:25:08.480Z,44.00
2019-04-27T00:27:36.676Z,41.18
2019-04-27T00:30:05.254Z,40.78
2019-04-27T00:32:33.450Z,39.98
2019-04-27T00:35:03.733Z,40.03
2019-04-27T00:37:34.071Z,38.15
2019-04-27T00:40:16.049Z,38.85
2019-04-27T00:42:45.105Z,38.78
2019-04-27T00:45:13.645Z,36.05
2019-04-27T00:47:54.718Z,32.40
2019-04-27T00:50:13.437Z,34.05
2019-04-27T00:52:42.948Z,33.60
2019-04-27T00:55:13.284Z,35.55
2019-04-27T01:00:24.691Z,34.50
2019-04-27T01:02:55.096Z,32.17
2019-04-27T01:07:53.787Z,31.77
2019-04-27T01:10:23.341Z,37.25
2019-04-27T01:12:53.089Z,36.35
2019-04-27T01:15:23.674Z,31.87
2019-04-27T01:17:51.710Z,31.15
2019-04-27T01:20:19.919Z,33.33
2019-04-27T01:22:49.152Z,35.35
2019-04-27T01:25:18.828Z,30.32
2019-04-27T01:27:59.633Z,31.55
2019-04-27T01:30:39.225Z,28.45
2019-04-27T01:33:07.513Z,30.15
2019-04-27T01:35:35.971Z,26.12
2019-04-27T01:38:04.167Z,26.85
2019-04-27T01:40:32.381Z,26.62
2019-04-27T01:43:00.583Z,24.75
2019-04-27T01:45:29.111Z,26.75
2019-04-27T01:47:57.367Z,27.13
2019-04-27T01:50:26.345Z,25.60
2019-04-27T01:52:54.557Z,28.47
2019-04-27T01:55:23.361Z,26.45
2019-04-27T01:57:51.620Z,32.00
2019-04-27T02:00:35.822Z,28.12
2019-04-27T02:03:06.224Z,26.70
2019-04-27T02:08:04.062Z,28.67
2019-04-27T02:10:32.274Z,26.50
2019-04-27T02:13:01.537Z,25.20
2019-04-27T02:15:30.475Z,27.05
2019-04-27T02:17:59.726Z,25.48
2019-04-27T02:20:28.272Z,23.40
2019-04-27T02:22:58.826Z,26.45
2019-04-27T02:25:27.106Z,23.70
2019-04-27T02:27:59.628Z,25.68
2019-04-27T02:30:45.850Z,21.68
2019-04-27T02:33:21.698Z,23.83
2019-04-27T02:35:50.629Z,23.70
2019-04-27T02:38:20.115Z,29.07
2019-04-27T02:40:51.883Z,30.88
2019-04-27T02:43:31.043Z,28.62
2019-04-27T02:46:00.472Z,29.55
2019-04-27T02:48:29.871Z,21.63
2019-04-27T02:51:00.045Z,26.97
2019-04-27T02:53:46.835Z,30.45
2019-04-27T02:56:15.105Z,32.78
2019-04-27T02:58:44.349Z,35.17
2019-04-27T03:01:12.557Z,33.95
2019-04-27T03:03:41.246Z,32.53
2019-04-27T03:06:09.865Z,25.97
2019-04-27T03:08:39.362Z,25.37
2019-04-27T03:11:09.916Z,24.32
2019-04-27T03:13:43.000Z,27.05
2019-04-27T03:16:20.480Z,23.57
2019-04-27T03:19:14.645Z,20.72
2019-04-27T03:21:56.511Z,21.10
2019-04-27T03:24:42.896Z,21.82
2019-04-27T03:27:12.246Z,22.13
2019-04-27T03:29:40.439Z,22.73
2019-04-27T03:32:12.562Z,21.37
2019-04-27T03:34:41.811Z,22.75
2019-04-27T03:37:10.286Z,20.92
2019-04-27T03:39:39.747Z,19.07
2019-04-27T03:42:10.410Z,18.82
2019-04-27T03:44:39.812Z,17.48
2019-04-27T03:47:12.296Z,17.87
2019-04-27T03:49:41.508Z,19.75
2019-04-27T03:52:09.838Z,21.85
2019-04-27T03:54:42.690Z,20.92
2019-04-27T03:57:12.844Z,18.05
2019-04-27T04:00:00.779Z,17.50
2019-04-27T04:02:30.385Z,14.85
2019-04-27T04:04:59.587Z,16.85
2019-04-27T04:07:29.997Z,15.45
2019-04-27T04:10:00.287Z,16.15
2019-04-27T04:12:30.450Z,14.80
2019-04-27T04:14:59.823Z,15.90
2019-04-27T04:17:30.723Z,18.15
2019-04-27T04:20:01.473Z,18.35
2019-04-27T04:22:30.337Z,19.32
2019-04-27T04:24:59.989Z,18.20
2019-04-27T04:27:29.954Z,20.12
2019-04-27T04:29:59.383Z,19.42
2019-04-27T04:32:29.765Z,20.02
2019-04-27T04:35:01.439Z,18.17
2019-04-27T04:37:29.877Z,15.30
2019-04-27T04:39:59.814Z,14.98
2019-04-27T04:42:30.091Z,16.55
2019-04-27T04:45:02.822Z,15.15
2019-04-27T04:47:32.869Z,15.05
2019-04-27T04:50:10.762Z,14.93
2019-04-27T04:52:31.012Z,15.00
2019-04-27T04:54:59.335Z,12.33
2019-04-27T04:57:30.071Z,11.83
2019-04-27T04:59:59.276Z,11.95
2019-04-27T05:02:29.311Z,11.55
2019-04-27T05:04:59.087Z,14.33
2019-04-27T05:07:29.594Z,12.75
2019-04-27T05:09:58.784Z,12.85
2019-04-27T05:12:28.757Z,11.70
2019-04-27T05:14:59.062Z,11.35
2019-04-27T05:17:29.543Z,10.65
2019-04-27T05:19:59.039Z,10.00
2019-04-27T05:22:27.355Z,11.00
2019-04-27T05:25:01.210Z,10.08
2019-04-27T05:27:30.153Z,10.03
2019-04-27T05:30:00.232Z,9.85
2019-04-27T05:32:29.183Z,9.75
2019-04-27T05:34:57.400Z,9.50
2019-04-27T05:37:28.393Z,9.28
2019-04-27T05:39:55.521Z,8.45
2019-04-27T05:42:23.726Z,9.18
2019-04-27T05:45:19.981Z,8.43
2019-04-27T05:47:59.246Z,8.90
2019-04-27T05:50:36.200Z,8.63
2019-04-27T05:52:59.587Z,8.13
2019-04-27T05:55:29.188Z,7.33
2019-04-27T05:57:59.148Z,7.50
2019-04-27T06:00:29.355Z,7.17
2019-04-27T06:02:59.070Z,7.87
2019-04-27T06:05:29.159Z,8.03
2019-04-27T06:07:58.870Z,8.58
2019-04-27T06:10:27.259Z,7.87
2019-04-27T06:12:55.936Z,8.48
2019-04-27T06:15:24.901Z,8.25
2019-04-27T06:17:53.104Z,7.75
2019-04-27T06:20:21.292Z,7.35
2019-04-27T06:22:49.495Z,7.78
2019-04-27T06:25:21.144Z,6.95
2019-04-27T06:27:49.569Z,7.65
2019-04-27T06:30:19.255Z,7.28
2019-04-27T06:32:49.423Z,7.47
2019-04-27T06:35:18.657Z,7.28
2019-04-27T06:37:46.952Z,7.70
2019-04-27T06:40:15.827Z,6.72
2019-04-27T06:42:44.587Z,6.87
2019-04-27T06:45:12.788Z,7.17
2019-04-27T06:47:41.477Z,6.92
2019-04-27T06:50:10.406Z,6.58
2019-04-27T06:52:39.944Z,6.95
2019-04-27T06:55:09.379Z,6.63
2019-04-27T06:57:39.153Z,6.67
2019-04-27T07:00:09.075Z,6.55
2019-04-27T07:02:39.210Z,6.70
2019-04-27T07:05:08.942Z,6.10
2019-04-27T07:07:39.355Z,6.85
2019-04-27T07:10:08.643Z,6.97
2019-04-27T07:12:38.723Z,6.80
2019-04-27T07:15:08.777Z,6.78
2019-04-27T07:17:38.907Z,7.15
2019-04-27T07:20:09.190Z,5.90
2019-04-27T07:22:37.419Z,6.78
2019-04-27T07:25:06.291Z,6.35
2019-04-27T07:27:34.490Z,7.83
2019-04-27T07:30:02.697Z,7.28
2019-04-27T07:32:30.962Z,6.67
2019-04-27T07:34:59.174Z,6.37
2019-04-27T07:37:29.253Z,7.10
2019-04-27T07:39:59.056Z,6.15
2019-04-27T07:42:30.214Z,6.10
2019-04-27T07:44:59.534Z,6.50
2019-04-27T07:49:59.265Z,6.78
2019-04-27T07:52:28.718Z,6.22
2019-04-27T07:54:58.682Z,6.67
2019-04-27T07:57:28.837Z,6.92
2019-04-27T07:59:57.050Z,6.70
2019-04-27T08:02:25.265Z,7.33
2019-04-27T08:04:53.471Z,7.92
2019-04-27T08:07:21.760Z,7.65
2019-04-27T08:09:49.993Z,7.20
2019-04-27T08:12:18.575Z,6.95
2019-04-27T08:14:49.105Z,8.65
2019-04-27T08:17:19.151Z,8.30
2019-04-27T08:19:49.382Z,7.80
2019-04-27T08:22:19.463Z,7.55
2019-04-27T08:24:49.381Z,7.53
2019-04-27T08:27:29.397Z,7.00
2019-04-27T08:30:01.762Z,7.45
2019-04-27T08:32:39.069Z,7.60
2019-04-27T08:35:09.524Z,6.72
2019-04-27T08:37:38.652Z,7.53
2019-04-27T08:40:09.201Z,6.67
2019-04-27T08:45:05.851Z,6.05
2019-04-27T08:47:35.375Z,6.20
2019-04-27T08:50:03.753Z,5.70
2019-04-27T08:52:31.940Z,6.22
2019-04-27T08:55:00.146Z,7.35
2019-04-27T08:57:29.000Z,6.67
2019-04-27T08:59:59.513Z,6.83
2019-04-27T09:02:39.802Z,5.70
2019-04-27T09:04:59.631Z,6.50
2019-04-27T09:07:32.071Z,7.17
2019-04-27T09:10:10.725Z,6.33
2019-04-27T09:12:53.724Z,6.08
2019-04-27T09:15:29.750Z,6.25
2019-04-27T09:17:58.910Z,6.00
2019-04-27T09:20:28.840Z,6.17
2019-04-27T09:22:57.033Z,4.92
2019-04-27T09:25:25.237Z,5.20
2019-04-27T09:27:53.434Z,5.53
2019-04-27T09:30:21.634Z,5.40
2019-04-27T09:32:49.825Z,5.47
2019-04-27T09:35:18.805Z,5.08
2019-04-27T09:37:46.998Z,5.08
2019-04-27T09:40:17.148Z,5.03
2019-04-27T09:42:46.351Z,4.55
2019-04-27T09:45:15.915Z,5.33
2019-04-27T09:47:44.232Z,5.60
2019-04-27T09:50:12.759Z,6.08
2019-04-27T09:52:41.222Z,6.08
2019-04-27T09:55:09.430Z,5.78
2019-04-27T09:57:37.619Z,6.10
2019-04-27T10:00:07.395Z,5.90
2019-04-27T10:02:36.657Z,6.22
2019-04-27T10:05:06.200Z,6.62
2019-04-27T10:07:35.837Z,6.92
2019-04-27T10:10:06.992Z,6.80
2019-04-27T10:12:36.899Z,6.58
2019-04-27T10:15:06.183Z,6.42
2019-04-27T10:17:34.381Z,5.85
2019-04-27T10:20:03.416Z,5.95
2019-04-27T10:22:41.085Z,5.92
2019-04-27T10:25:01.594Z,6.17
2019-04-27T10:27:29.790Z,6.25
2019-04-27T10:29:58.539Z,6.65
2019-04-27T10:32:26.871Z,6.90
2019-04-27T10:34:55.374Z,7.08
2019-04-27T10:37:23.610Z,7.15
2019-04-27T10:39:51.801Z,7.65
2019-04-27T10:42:20.308Z,8.00
2019-04-27T10:44:48.502Z,7.20
2019-04-27T10:47:17.479Z,7.55
2019-04-27T10:49:48.300Z,7.47
2019-04-27T10:52:16.169Z,7.42
2019-04-27T10:54:44.366Z,7.60
2019-04-27T10:57:12.573Z,7.62
2019-04-27T10:59:40.780Z,7.35
2019-04-27T11:02:08.971Z,7.95
2019-04-27T11:04:39.573Z,7.95
2019-04-27T11:07:11.935Z,7.62
2019-04-27T11:09:40.129Z,7.65
2019-04-27T11:12:09.153Z,7.72
2019-04-27T11:14:37.346Z,6.92
2019-04-27T11:17:07.028Z,7.92
2019-04-27T11:19:35.760Z,7.15
2019-04-27T11:22:07.132Z,7.35
2019-04-27T11:24:33.948Z,7.00
2019-04-27T11:27:02.153Z,7.85
2019-04-27T11:29:30.342Z,7.40
2019-04-27T11:31:59.318Z,7.08
2019-04-27T11:34:45.885Z,7.20
2019-04-27T11:37:15.446Z,6.90
2019-04-27T11:39:43.878Z,7.47
2019-04-27T11:42:13.428Z,7.42
2019-04-27T11:44:42.198Z,7.10
2019-04-27T11:47:10.974Z,6.80
2019-04-27T11:49:39.746Z,7.33
2019-04-27T11:52:07.949Z,8.23
2019-04-27T11:54:36.147Z,7.30
2019-04-27T11:57:04.422Z,7.42
2019-04-27T11:59:32.623Z,8.00
2019-04-27T12:02:00.822Z,7.33
2019-04-27T12:04:29.184Z,8.05
2019-04-27T12:06:58.163Z,7.90
2019-04-27T12:09:27.130Z,8.23
2019-04-27T12:11:55.880Z,7.00
2019-04-27T12:14:26.103Z,7.92
2019-04-27T12:16:56.101Z,8.43
2019-04-27T12:19:24.387Z,7.65
2019-04-27T12:21:53.597Z,6.95
2019-04-27T12:24:22.360Z,8.18
2019-04-27T12:26:52.776Z,7.20
2019-04-27T12:31:51.669Z,5.78
2019-04-27T12:34:20.438Z,7.03
2019-04-27T12:36:48.629Z,6.03
2019-04-27T12:39:16.832Z,6.17
2019-04-27T12:41:46.187Z,5.90
2019-04-27T12:44:16.034Z,4.93
2019-04-27T12:46:44.290Z,5.67
2019-04-27T12:49:13.089Z,4.92
2019-04-27T12:51:41.281Z,5.08
2019-04-27T12:54:13.928Z,4.87
2019-04-27T12:56:46.682Z,4.08
2019-04-27T12:59:32.986Z,4.15
2019-04-27T13:02:01.846Z,3.95
2019-04-27T13:04:30.627Z,4.55
2019-04-27T13:06:59.590Z,4.42
2019-04-27T13:09:28.564Z,4.37
2019-04-27T13:11:56.762Z,4.87
2019-04-27T13:14:26.315Z,4.12
2019-04-27T13:16:56.075Z,4.47
2019-04-27T13:19:25.862Z,4.50
2019-04-27T13:21:55.892Z,4.47
2019-04-27T13:24:26.082Z,4.58
2019-04-27T13:26:55.878Z,4.35
2019-04-27T13:29:25.602Z,4.80
2019-04-27T13:31:55.745Z,5.08
2019-04-27T13:34:23.908Z,5.28
2019-04-27T13:36:52.270Z,5.62
2019-04-27T13:39:20.476Z,4.97
2019-04-27T13:41:48.942Z,4.83
2019-04-27T13:44:17.147Z,4.95
2019-04-27T13:47:03.067Z,4.03
2019-04-27T13:49:49.254Z,4.60
2019-04-27T13:52:19.094Z,4.20
2019-04-27T13:54:49.963Z,3.70
2019-04-27T13:57:18.372Z,3.42
2019-04-27T13:59:47.303Z,3.62
2019-04-27T14:02:16.201Z,2.85
2019-04-27T14:04:44.446Z,2.83
2019-04-27T14:07:12.641Z,2.90
2019-04-27T14:09:40.841Z,2.00
2019-04-27T14:12:10.667Z,2.30
2019-04-27T14:14:39.636Z,1.67
2019-04-27T14:17:09.815Z,2.37
2019-04-27T14:19:39.482Z,2.30
2019-04-27T14:22:09.150Z,2.70
2019-04-27T14:24:39.208Z,3.52
2019-04-27T14:27:07.832Z,3.02
2019-04-27T14:29:36.134Z,3.47
2019-04-27T14:32:04.472Z,3.85
2019-04-27T14:34:33.139Z,3.37
2019-04-27T14:37:01.328Z,3.83
2019-04-27T14:39:29.564Z,3.27
2019-04-27T14:41:58.072Z,3.90
2019-04-27T14:44:26.328Z,3.50
2019-04-27T14:46:54.523Z,3.70
2019-04-27T14:49:22.711Z,3.55
2019-04-27T14:51:51.673Z,4.10
2019-04-27T14:54:21.116Z,3.50
2019-04-27T14:56:49.306Z,5.50
2019-04-27T14:59:18.793Z,4.60
2019-04-27T15:01:48.669Z,5.35
2019-04-27T15:04:17.076Z,4.30
2019-04-27T15:06:45.653Z,5.25
2019-04-27T15:09:18.037Z,4.80
2019-04-27T15:11:45.082Z,5.03
2019-04-27T15:14:16.262Z,4.00
2019-04-27T15:16:47.079Z,4.62
2019-04-27T15:19:20.326Z,4.42
2019-04-27T15:21:56.338Z,4.20
2019-04-27T15:24:18.450Z,3.90
2019-04-27T15:26:46.647Z,4.70
2019-04-27T15:29:20.580Z,4.03
2019-04-27T15:31:48.493Z,4.30
2019-04-27T15:34:32.555Z,4.00
2019-04-27T15:37:08.003Z,4.60
2019-04-27T15:39:45.073Z,4.20
2019-04-27T15:42:23.611Z,4.83
2019-04-27T15:44:52.668Z,5.35
2019-04-27T15:47:22.466Z,4.58
2019-04-27T15:49:54.638Z,4.35
2019-04-27T15:52:21.171Z,4.97
2019-04-27T15:54:49.889Z,5.45
2019-04-27T15:57:19.146Z,4.75
2019-04-27T15:59:48.315Z,5.17
2019-04-27T16:02:16.441Z,4.47
2019-04-27T16:04:49.826Z,5.53
2019-04-27T16:07:18.162Z,5.22
2019-04-27T16:09:44.553Z,5.33
2019-04-27T16:12:13.327Z,5.35
2019-04-27T16:14:44.114Z,5.15
2019-04-27T16:17:11.712Z,5.42
2019-04-27T16:19:46.747Z,5.17
2019-04-27T16:22:12.097Z,19.00
2019-04-27T16:24:40.327Z,17.62
2019-04-27T16:27:09.089Z,5.47
2019-04-27T16:29:38.967Z,4.97
2019-04-27T16:32:11.232Z,5.15
2019-04-27T16:34:41.024Z,7.10
2019-04-27T16:37:09.572Z,10.13
2019-04-27T16:39:39.681Z,7.53
2019-04-27T16:42:09.660Z,5.80
2019-04-27T16:44:39.980Z,8.20
2019-04-27T16:47:08.423Z,7.78
2019-04-27T16:49:38.152Z,7.28
2019-04-27T16:52:11.638Z,5.92
2019-04-27T16:54:37.835Z,10.35
2019-04-27T16:57:07.910Z,7.78
2019-04-27T16:59:44.221Z,5.72
2019-04-27T17:02:08.172Z,6.33
2019-04-27T17:04:38.489Z,5.58
2019-04-27T17:07:08.763Z,5.58
2019-04-27T17:09:42.143Z,5.95
2019-04-27T17:12:06.916Z,5.75
2019-04-27T17:14:38.751Z,6.22
2019-04-27T17:17:28.271Z,6.70
2019-04-27T17:20:01.523Z,5.97
2019-04-27T17:22:29.719Z,6.50
2019-04-27T17:24:58.233Z,7.40
2019-04-27T17:27:31.231Z,11.05
2019-04-27T17:30:01.422Z,9.33
2019-04-27T17:32:33.563Z,8.25
2019-04-27T17:35:05.000Z,8.28
2019-04-27T17:37:33.809Z,8.43
2019-04-27T17:40:00.918Z,8.90
2019-04-27T17:42:30.798Z,9.30
2019-04-27T17:45:00.451Z,8.08
2019-04-27T17:47:29.907Z,7.35
2019-04-27T17:49:58.435Z,8.35
2019-04-27T17:52:26.552Z,7.58
2019-04-27T17:54:55.006Z,7.62
2019-04-27T17:57:26.502Z,7.53
2019-04-27T17:59:59.058Z,7.15
2019-04-27T18:02:23.574Z,8.45
2019-04-27T18:04:51.720Z,6.87
2019-04-27T18:07:20.394Z,7.78
2019-04-27T18:09:48.587Z,6.92
2019-04-27T18:12:18.316Z,6.28
2019-04-27T18:14:48.986Z,6.85
2019-04-27T18:17:19.686Z,6.65
2019-04-27T18:19:52.739Z,6.50
2019-04-27T18:22:20.943Z,6.78
2019-04-27T18:24:50.783Z,6.85
2019-04-27T18:27:22.277Z,7.00
2019-04-27T18:29:50.466Z,7.83
2019-04-27T18:32:18.661Z,7.12
2019-04-27T18:34:49.336Z,7.12
2019-04-27T18:37:20.938Z,6.95
2019-04-27T18:42:18.152Z,6.80
2019-04-27T18:44:46.464Z,7.30
2019-04-27T18:47:14.673Z,8.48
2019-04-27T18:50:07.843Z,7.87
2019-04-27T18:52:47.668Z,7.15
2019-04-27T18:55:16.699Z,6.00
2019-04-27T18:57:46.011Z,6.75
2019-04-27T19:00:17.217Z,11.55
2019-04-27T19:05:12.919Z,6.40
2019-04-27T19:07:41.402Z,12.60
2019-04-27T19:10:09.916Z,9.45
2019-04-27T19:12:39.398Z,8.05
2019-04-27T19:15:08.382Z,9.13
2019-04-27T19:17:38.698Z,28.90
2019-04-27T19:22:36.193Z,11.65
2019-04-27T19:25:09.314Z,6.15
2019-04-27T19:27:52.484Z,6.90
2019-04-27T19:30:25.263Z,4.78
2019-04-27T19:32:53.780Z,5.87
2019-04-27T19:35:22.591Z,5.70
2019-04-27T19:37:50.787Z,5.50
2019-04-27T19:40:20.214Z,5.05
2019-04-27T19:42:48.701Z,5.30
2019-04-27T19:45:19.452Z,4.90
2019-04-27T19:47:48.608Z,5.05
2019-04-27T19:50:19.170Z,5.67
2019-04-27T19:52:50.197Z,5.00
2019-04-27T19:55:18.958Z,5.12
2019-04-27T19:57:47.243Z,5.00
2019-04-27T20:00:23.384Z,5.67
2019-04-27T20:02:51.589Z,5.90
2019-04-27T20:05:19.781Z,6.22
2019-04-27T20:07:48.318Z,6.10
2019-04-27T20:10:16.459Z,5.75
2019-04-27T20:12:44.669Z,5.80
2019-04-27T20:15:12.847Z,6.17
2019-04-27T20:17:41.052Z,6.00
2019-04-27T20:20:09.254Z,6.00
2019-04-27T20:22:37.496Z,6.42
2019-04-27T20:25:05.757Z,5.90
2019-04-27T20:27:45.932Z,6.08
2019-04-27T20:30:08.130Z,6.05
2019-04-27T20:32:37.096Z,5.70
2019-04-27T20:35:06.460Z,5.50
2019-04-27T20:37:34.653Z,6.17
2019-04-27T20:40:02.863Z,5.58
2019-04-27T20:42:31.572Z,4.60
2019-04-27T20:45:01.721Z,4.47
2019-04-27T20:47:29.749Z,4.05
2019-04-27T20:49:57.955Z,4.25
2019-04-27T20:52:28.556Z,4.85
2019-04-27T20:54:56.748Z,4.83
2019-04-27T20:57:25.035Z,4.40
2019-04-27T20:59:54.009Z,4.55
2019-04-27T21:02:31.929Z,4.20
2019-04-27T21:05:01.640Z,4.17
2019-04-27T21:07:37.197Z,4.53
2019-04-27T21:10:07.537Z,4.47
2019-04-27T21:15:04.236Z,5.03
2019-04-27T21:17:33.096Z,4.80
2019-04-27T21:20:01.300Z,5.47
2019-04-27T21:22:31.483Z,4.37
2019-04-27T21:25:01.511Z,5.10
2019-04-27T21:27:31.982Z,4.83
2019-04-27T21:30:02.558Z,5.03
2019-04-27T21:32:30.151Z,5.05
2019-04-27T21:34:58.358Z,5.10
2019-04-27T21:37:26.554Z,4.65
2019-04-27T21:40:14.155Z,6.05
2019-04-27T21:42:42.344Z,5.83
2019-04-27T21:45:11.280Z,5.80
2019-04-27T21:47:39.482Z,6.85
2019-04-27T21:50:08.092Z,7.95
2019-04-27T21:52:54.035Z,7.03
2019-04-27T21:55:24.648Z,8.08
2019-04-27T21:57:52.843Z,7.55
2019-04-27T22:00:34.333Z,7.70
2019-04-27T22:03:02.516Z,7.42
2019-04-27T22:05:31.558Z,7.37
2019-04-27T22:08:00.877Z,8.93
2019-04-27T22:10:31.094Z,9.25
2019-04-27T22:12:59.265Z,8.48
2019-04-27T22:15:27.735Z,9.03
2019-04-27T22:17:56.493Z,9.83
2019-04-27T22:20:25.469Z,10.48
2019-04-27T22:22:55.308Z,10.50
2019-04-27T22:25:35.869Z,11.78
2019-04-27T22:28:05.299Z,12.63
2019-04-27T22:30:33.509Z,13.70
2019-04-27T22:33:01.717Z,14.23
2019-04-27T22:35:31.302Z,13.50
2019-04-27T22:37:59.594Z,14.68
2019-04-27T22:40:45.518Z,15.38
2019-04-27T22:43:33.952Z,15.18
2019-04-27T22:46:02.714Z,12.95
2019-04-27T22:48:33.095Z,14.18
2019-04-27T22:53:30.624Z,13.18
2019-04-27T22:56:11.179Z,14.07
2019-04-27T22:59:03.152Z,13.98
2019-04-27T23:01:40.688Z,14.50
2019-04-27T23:06:55.923Z,14.60
2019-04-27T23:09:24.123Z,14.77
2019-04-27T23:11:52.332Z,12.93
2019-04-27T23:14:21.200Z,15.43
2019-04-27T23:16:51.150Z,15.28
2019-04-27T23:19:21.025Z,14.38
2019-04-27T23:21:49.330Z,13.60
2019-04-27T23:24:17.534Z,14.13
2019-04-27T23:26:47.365Z,12.78
2019-04-27T23:29:16.056Z,13.85
2019-04-27T23:31:46.058Z,13.98
2019-04-27T23:34:14.589Z,15.58
2019-04-27T23:36:44.299Z,14.53
2019-04-27T23:39:12.652Z,14.33
2019-04-27T23:41:40.864Z,14.90
2019-04-27T23:44:09.063Z,14.18
2019-04-27T23:46:37.275Z,13.85
2019-04-27T23:49:05.474Z,13.55
2019-04-27T23:51:38.281Z,12.98
2019-04-27T23:54:06.480Z,14.20
2019-04-27T23:56:35.262Z,13.48
2019-04-27T23:59:03.458Z,14.03
